sensor_id;sensor_type;location;lat;lon;timestamp;P1;durP1;ratioP1;P2;durP2;ratioP2
76065;SDS011;64763;48.928;8.474;2023-03-16T00:01:36;11.95;;;6.40;;
76065;SDS011;64763;48.928;8.474;2023-03-16T00:04:02;12.07;;;6.72;;
76065;SDS011;64763;48.928;8.474;2023-03-16T00:06:28;10.85;;;6.10;;
76065;SDS011;64763;48.928;8.474;2023-03-16T00:08:54;13.23;;;5.75;;
76065;SDS011;64763;48.928;8.474;2023-03-16T00:11:23;12.23;;;6.35;;
76065;SDS011;64763;48.928;8.474;2023-03-16T00:13:49;14.55;;;7.38;;
76065;SDS011;64763;48.928;8.474;2023-03-16T00:16:15;12.27;;;6.68;;
76065;SDS011;64763;48.928;8.474;2023-03-16T00:18:41;13.80;;;6.40;;
76065;SDS011;64763;48.928;8.474;2023-03-16T00:21:06;16.73;;;7.30;;
76065;SDS011;64763;48.928;8.474;2023-03-16T00:25:59;13.80;;;6.45;;
76065;SDS011;64763;48.928;8.474;2023-03-16T00:28:27;11.85;;;6.15;;
76065;SDS011;64763;48.928;8.474;2023-03-16T00:30:54;9.27;;;5.57;;
76065;SDS011;64763;48.928;8.474;2023-03-16T00:33:23;10.05;;;5.53;;
76065;SDS011;64763;48.928;8.474;2023-03-16T00:35:48;12.02;;;5.97;;
76065;SDS011;64763;48.928;8.474;2023-03-16T00:38:17;16.45;;;6.43;;
76065;SDS011;64763;48.928;8.474;2023-03-16T00:40:43;7.63;;;5.00;;
76065;SDS011;64763;48.928;8.474;2023-03-16T00:43:09;10.75;;;6.13;;
76065;SDS011;64763;48.928;8.474;2023-03-16T00:45:34;11.15;;;6.22;;
76065;SDS011;64763;48.928;8.474;2023-03-16T00:48:00;12.35;;;6.00;;
76065;SDS011;64763;48.928;8.474;2023-03-16T00:50:26;12.35;;;6.43;;
76065;SDS011;64763;48.928;8.474;2023-03-16T00:52:51;12.35;;;5.88;;
76065;SDS011;64763;48.928;8.474;2023-03-16T00:55:17;11.05;;;5.78;;
76065;SDS011;64763;48.928;8.474;2023-03-16T00:57:43;11.35;;;5.78;;
76065;SDS011;64763;48.928;8.474;2023-03-16T01:00:09;12.55;;;6.20;;
76065;SDS011;64763;48.928;8.474;2023-03-16T01:02:41;10.35;;;6.10;;
76065;SDS011;64763;48.928;8.474;2023-03-16T01:05:09;11.45;;;6.43;;
76065;SDS011;64763;48.928;8.474;2023-03-16T01:07:36;12.05;;;5.57;;
76065;SDS011;64763;48.928;8.474;2023-03-16T01:10:02;12.68;;;6.25;;
76065;SDS011;64763;48.928;8.474;2023-03-16T01:14:53;11.40;;;6.40;;
76065;SDS011;64763;48.928;8.474;2023-03-16T01:17:19;10.35;;;5.15;;
76065;SDS011;64763;48.928;8.474;2023-03-16T01:19:46;9.63;;;5.25;;
76065;SDS011;64763;48.928;8.474;2023-03-16T01:22:12;9.85;;;5.63;;
76065;SDS011;64763;48.928;8.474;2023-03-16T01:24:38;10.30;;;5.78;;
76065;SDS011;64763;48.928;8.474;2023-03-16T01:27:03;13.50;;;5.70;;
76065;SDS011;64763;48.928;8.474;2023-03-16T01:29:29;12.10;;;4.78;;
76065;SDS011;64763;48.928;8.474;2023-03-16T01:31:55;10.60;;;5.30;;
76065;SDS011;64763;48.928;8.474;2023-03-16T01:36:47;9.80;;;5.05;;
76065;SDS011;64763;48.928;8.474;2023-03-16T01:39:13;9.63;;;5.32;;
76065;SDS011;64763;48.928;8.474;2023-03-16T01:44:05;6.43;;;4.30;;
76065;SDS011;64763;48.928;8.474;2023-03-16T01:46:30;8.18;;;4.82;;
76065;SDS011;64763;48.928;8.474;2023-03-16T01:51:25;8.13;;;4.60;;
76065;SDS011;64763;48.928;8.474;2023-03-16T01:53:58;7.63;;;4.78;;
76065;SDS011;64763;48.928;8.474;2023-03-16T01:56:32;10.98;;;5.18;;
76065;SDS011;64763;48.928;8.474;2023-03-16T01:59:02;12.13;;;5.38;;
76065;SDS011;64763;48.928;8.474;2023-03-16T02:01:31;9.60;;;5.20;;
76065;SDS011;64763;48.928;8.474;2023-03-16T02:06:26;8.15;;;4.30;;
76065;SDS011;64763;48.928;8.474;2023-03-16T02:08:52;9.32;;;5.00;;
76065;SDS011;64763;48.928;8.474;2023-03-16T02:11:19;10.95;;;4.93;;
76065;SDS011;64763;48.928;8.474;2023-03-16T02:13:46;9.95;;;5.22;;
76065;SDS011;64763;48.928;8.474;2023-03-16T02:16:12;11.38;;;5.72;;
76065;SDS011;64763;48.928;8.474;2023-03-16T02:18:43;12.00;;;5.45;;
76065;SDS011;64763;48.928;8.474;2023-03-16T02:21:22;10.20;;;6.05;;
76065;SDS011;64763;48.928;8.474;2023-03-16T02:23:51;11.25;;;6.03;;
76065;SDS011;64763;48.928;8.474;2023-03-16T02:29:05;11.00;;;5.05;;
76065;SDS011;64763;48.928;8.474;2023-03-16T02:31:55;10.02;;;4.90;;
76065;SDS011;64763;48.928;8.474;2023-03-16T02:34:21;8.70;;;3.95;;
76065;SDS011;64763;48.928;8.474;2023-03-16T02:39:12;5.63;;;3.63;;
76065;SDS011;64763;48.928;8.474;2023-03-16T02:44:11;8.25;;;3.55;;
76065;SDS011;64763;48.928;8.474;2023-03-16T02:46:40;7.38;;;4.28;;
76065;SDS011;64763;48.928;8.474;2023-03-16T02:49:21;8.02;;;4.43;;
76065;SDS011;64763;48.928;8.474;2023-03-16T02:51:49;8.30;;;4.65;;
76065;SDS011;64763;48.928;8.474;2023-03-16T02:56:40;9.57;;;4.87;;
76065;SDS011;64763;48.928;8.474;2023-03-16T03:01:31;9.98;;;4.57;;
76065;SDS011;64763;48.928;8.474;2023-03-16T03:03:58;15.35;;;5.68;;
76065;SDS011;64763;48.928;8.474;2023-03-16T03:08:49;8.27;;;4.33;;
76065;SDS011;64763;48.928;8.474;2023-03-16T03:13:42;11.63;;;4.90;;
76065;SDS011;64763;48.928;8.474;2023-03-16T03:16:08;17.20;;;5.32;;
76065;SDS011;64763;48.928;8.474;2023-03-16T03:20:59;7.40;;;4.50;;
76065;SDS011;64763;48.928;8.474;2023-03-16T03:25:50;12.20;;;5.27;;
76065;SDS011;64763;48.928;8.474;2023-03-16T03:30:40;10.93;;;5.27;;
76065;SDS011;64763;48.928;8.474;2023-03-16T03:35:31;10.97;;;5.03;;
76065;SDS011;64763;48.928;8.474;2023-03-16T03:40:21;10.20;;;5.07;;
76065;SDS011;64763;48.928;8.474;2023-03-16T03:45:12;9.77;;;5.32;;
76065;SDS011;64763;48.928;8.474;2023-03-16T03:47:38;12.35;;;6.43;;
76065;SDS011;64763;48.928;8.474;2023-03-16T03:50:05;13.63;;;5.88;;
76065;SDS011;64763;48.928;8.474;2023-03-16T03:52:31;14.02;;;6.88;;
76065;SDS011;64763;48.928;8.474;2023-03-16T03:54:56;16.85;;;7.47;;
76065;SDS011;64763;48.928;8.474;2023-03-16T03:59:47;17.37;;;7.20;;
76065;SDS011;64763;48.928;8.474;2023-03-16T04:02:12;16.95;;;7.53;;
76065;SDS011;64763;48.928;8.474;2023-03-16T04:04:38;14.35;;;6.85;;
76065;SDS011;64763;48.928;8.474;2023-03-16T04:07:05;16.52;;;7.60;;
76065;SDS011;64763;48.928;8.474;2023-03-16T04:11:58;12.63;;;7.13;;
76065;SDS011;64763;48.928;8.474;2023-03-16T04:14:24;13.60;;;6.75;;
76065;SDS011;64763;48.928;8.474;2023-03-16T04:16:49;15.57;;;7.60;;
76065;SDS011;64763;48.928;8.474;2023-03-16T04:19:15;14.07;;;7.18;;
76065;SDS011;64763;48.928;8.474;2023-03-16T04:21:40;15.98;;;7.03;;
76065;SDS011;64763;48.928;8.474;2023-03-16T04:26:31;13.40;;;7.13;;
76065;SDS011;64763;48.928;8.474;2023-03-16T04:28:58;16.35;;;7.40;;
76065;SDS011;64763;48.928;8.474;2023-03-16T04:31:23;19.38;;;7.80;;
76065;SDS011;64763;48.928;8.474;2023-03-16T04:33:49;17.48;;;7.60;;
76065;SDS011;64763;48.928;8.474;2023-03-16T04:36:14;18.60;;;8.02;;
76065;SDS011;64763;48.928;8.474;2023-03-16T04:38:40;16.40;;;8.30;;
76065;SDS011;64763;48.928;8.474;2023-03-16T04:41:06;17.55;;;8.30;;
76065;SDS011;64763;48.928;8.474;2023-03-16T04:43:31;19.20;;;8.55;;
76065;SDS011;64763;48.928;8.474;2023-03-16T04:46:01;17.20;;;8.45;;
76065;SDS011;64763;48.928;8.474;2023-03-16T04:48:27;18.95;;;9.00;;
76065;SDS011;64763;48.928;8.474;2023-03-16T04:50:53;18.38;;;8.80;;
76065;SDS011;64763;48.928;8.474;2023-03-16T04:53:18;21.40;;;8.10;;
76065;SDS011;64763;48.928;8.474;2023-03-16T04:55:44;18.13;;;7.53;;
76065;SDS011;64763;48.928;8.474;2023-03-16T04:58:10;16.65;;;8.73;;
76065;SDS011;64763;48.928;8.474;2023-03-16T05:00:35;17.25;;;7.75;;
76065;SDS011;64763;48.928;8.474;2023-03-16T05:03:00;8.65;;;5.05;;
76065;SDS011;64763;48.928;8.474;2023-03-16T05:05:26;9.60;;;5.78;;
76065;SDS011;64763;48.928;8.474;2023-03-16T05:07:52;9.48;;;4.75;;
76065;SDS011;64763;48.928;8.474;2023-03-16T05:10:17;7.88;;;4.22;;
76065;SDS011;64763;48.928;8.474;2023-03-16T05:15:08;6.25;;;3.95;;
76065;SDS011;64763;48.928;8.474;2023-03-16T05:17:34;7.50;;;4.75;;
76065;SDS011;64763;48.928;8.474;2023-03-16T05:20:00;7.40;;;4.45;;
76065;SDS011;64763;48.928;8.474;2023-03-16T05:22:25;9.75;;;4.75;;
76065;SDS011;64763;48.928;8.474;2023-03-16T05:27:16;10.13;;;4.63;;
76065;SDS011;64763;48.928;8.474;2023-03-16T05:32:10;9.10;;;4.55;;
76065;SDS011;64763;48.928;8.474;2023-03-16T05:34:38;9.05;;;4.80;;
76065;SDS011;64763;48.928;8.474;2023-03-16T05:37:04;10.13;;;5.47;;
76065;SDS011;64763;48.928;8.474;2023-03-16T05:39:30;9.27;;;5.10;;
76065;SDS011;64763;48.928;8.474;2023-03-16T05:41:56;9.90;;;5.15;;
76065;SDS011;64763;48.928;8.474;2023-03-16T05:46:47;10.52;;;5.30;;
76065;SDS011;64763;48.928;8.474;2023-03-16T05:51:38;14.17;;;7.07;;
76065;SDS011;64763;48.928;8.474;2023-03-16T05:56:28;15.20;;;6.88;;
76065;SDS011;64763;48.928;8.474;2023-03-16T06:01:21;13.25;;;5.97;;
76065;SDS011;64763;48.928;8.474;2023-03-16T06:03:47;13.63;;;6.43;;
76065;SDS011;64763;48.928;8.474;2023-03-16T06:06:17;11.00;;;5.60;;
76065;SDS011;64763;48.928;8.474;2023-03-16T06:08:43;11.85;;;5.32;;
76065;SDS011;64763;48.928;8.474;2023-03-16T06:13:34;10.63;;;5.28;;
76065;SDS011;64763;48.928;8.474;2023-03-16T06:16:00;10.20;;;5.50;;
76065;SDS011;64763;48.928;8.474;2023-03-16T06:18:26;10.63;;;5.20;;
76065;SDS011;64763;48.928;8.474;2023-03-16T06:20:51;13.38;;;5.90;;
76065;SDS011;64763;48.928;8.474;2023-03-16T06:25:45;8.43;;;5.03;;
76065;SDS011;64763;48.928;8.474;2023-03-16T06:28:11;11.45;;;5.47;;
76065;SDS011;64763;48.928;8.474;2023-03-16T06:33:02;8.83;;;5.30;;
76065;SDS011;64763;48.928;8.474;2023-03-16T06:37:52;10.80;;;5.87;;
76065;SDS011;64763;48.928;8.474;2023-03-16T06:42:43;9.23;;;5.73;;
76065;SDS011;64763;48.928;8.474;2023-03-16T06:47:35;15.48;;;7.30;;
76065;SDS011;64763;48.928;8.474;2023-03-16T06:50:00;14.55;;;7.38;;
76065;SDS011;64763;48.928;8.474;2023-03-16T06:54:51;16.03;;;7.77;;
76065;SDS011;64763;48.928;8.474;2023-03-16T06:59:41;28.20;;;11.60;;
76065;SDS011;64763;48.928;8.474;2023-03-16T07:02:08;24.77;;;11.68;;
76065;SDS011;64763;48.928;8.474;2023-03-16T07:04:35;28.55;;;11.63;;
76065;SDS011;64763;48.928;8.474;2023-03-16T07:07:01;29.25;;;12.60;;
76065;SDS011;64763;48.928;8.474;2023-03-16T07:09:26;29.02;;;14.38;;
76065;SDS011;64763;48.928;8.474;2023-03-16T07:11:51;25.25;;;14.13;;
76065;SDS011;64763;48.928;8.474;2023-03-16T07:14:17;27.73;;;14.90;;
76065;SDS011;64763;48.928;8.474;2023-03-16T07:16:43;29.35;;;14.98;;
76065;SDS011;64763;48.928;8.474;2023-03-16T07:19:09;26.33;;;14.13;;
76065;SDS011;64763;48.928;8.474;2023-03-16T07:21:35;29.80;;;13.73;;
76065;SDS011;64763;48.928;8.474;2023-03-16T07:24:05;20.92;;;11.48;;
76065;SDS011;64763;48.928;8.474;2023-03-16T07:26:31;19.52;;;11.23;;
76065;SDS011;64763;48.928;8.474;2023-03-16T07:28:57;17.23;;;10.25;;
76065;SDS011;64763;48.928;8.474;2023-03-16T07:31:22;19.60;;;11.00;;
76065;SDS011;64763;48.928;8.474;2023-03-16T07:33:48;21.85;;;10.77;;
76065;SDS011;64763;48.928;8.474;2023-03-16T07:36:14;20.58;;;9.82;;
76065;SDS011;64763;48.928;8.474;2023-03-16T07:38:39;18.90;;;11.27;;
76065;SDS011;64763;48.928;8.474;2023-03-16T07:41:05;27.50;;;11.63;;
76065;SDS011;64763;48.928;8.474;2023-03-16T07:43:31;17.60;;;10.63;;
76065;SDS011;64763;48.928;8.474;2023-03-16T07:45:56;20.27;;;10.82;;
76065;SDS011;64763;48.928;8.474;2023-03-16T07:48:22;19.77;;;10.23;;
76065;SDS011;64763;48.928;8.474;2023-03-16T07:50:47;18.00;;;9.45;;
76065;SDS011;64763;48.928;8.474;2023-03-16T07:53:13;18.73;;;10.38;;
76065;SDS011;64763;48.928;8.474;2023-03-16T07:55:41;15.90;;;9.52;;
76065;SDS011;64763;48.928;8.474;2023-03-16T07:58:07;20.52;;;9.90;;
76065;SDS011;64763;48.928;8.474;2023-03-16T08:00:34;23.77;;;9.70;;
76065;SDS011;64763;48.928;8.474;2023-03-16T08:02:59;16.98;;;8.38;;
76065;SDS011;64763;48.928;8.474;2023-03-16T08:05:26;15.82;;;7.35;;
76065;SDS011;64763;48.928;8.474;2023-03-16T08:07:51;10.82;;;6.53;;
76065;SDS011;64763;48.928;8.474;2023-03-16T08:10:17;9.90;;;5.72;;
76065;SDS011;64763;48.928;8.474;2023-03-16T08:12:42;9.70;;;5.93;;
76065;SDS011;64763;48.928;8.474;2023-03-16T08:15:08;9.02;;;5.20;;
76065;SDS011;64763;48.928;8.474;2023-03-16T08:17:34;8.63;;;4.70;;
76065;SDS011;64763;48.928;8.474;2023-03-16T08:20:00;6.75;;;4.00;;
76065;SDS011;64763;48.928;8.474;2023-03-16T08:22:30;12.35;;;4.28;;
76065;SDS011;64763;48.928;8.474;2023-03-16T08:24:56;23.85;;;5.25;;
76065;SDS011;64763;48.928;8.474;2023-03-16T08:27:22;8.77;;;3.95;;
76065;SDS011;64763;48.928;8.474;2023-03-16T08:29:50;5.80;;;3.13;;
76065;SDS011;64763;48.928;8.474;2023-03-16T08:32:16;16.88;;;3.63;;
76065;SDS011;64763;48.928;8.474;2023-03-16T08:34:42;7.43;;;3.00;;
76065;SDS011;64763;48.928;8.474;2023-03-16T08:37:07;3.67;;;2.67;;
76065;SDS011;64763;48.928;8.474;2023-03-16T08:39:33;4.38;;;2.42;;
76065;SDS011;64763;48.928;8.474;2023-03-16T08:41:59;4.75;;;2.75;;
76065;SDS011;64763;48.928;8.474;2023-03-16T08:44:25;4.95;;;2.10;;
76065;SDS011;64763;48.928;8.474;2023-03-16T08:46:51;3.78;;;2.38;;
76065;SDS011;64763;48.928;8.474;2023-03-16T08:49:16;4.40;;;2.38;;
76065;SDS011;64763;48.928;8.474;2023-03-16T08:51:44;5.75;;;2.45;;
76065;SDS011;64763;48.928;8.474;2023-03-16T08:54:10;4.03;;;2.20;;
76065;SDS011;64763;48.928;8.474;2023-03-16T08:56:36;3.92;;;2.00;;
76065;SDS011;64763;48.928;8.474;2023-03-16T08:59:01;4.18;;;2.20;;
76065;SDS011;64763;48.928;8.474;2023-03-16T09:01:27;4.45;;;2.13;;
76065;SDS011;64763;48.928;8.474;2023-03-16T09:03:53;4.07;;;2.00;;
76065;SDS011;64763;48.928;8.474;2023-03-16T09:06:19;3.00;;;1.77;;
76065;SDS011;64763;48.928;8.474;2023-03-16T09:08:44;3.28;;;1.88;;
76065;SDS011;64763;48.928;8.474;2023-03-16T09:11:12;4.00;;;1.90;;
76065;SDS011;64763;48.928;8.474;2023-03-16T09:13:40;3.20;;;1.73;;
76065;SDS011;64763;48.928;8.474;2023-03-16T09:16:06;3.70;;;1.75;;
76065;SDS011;64763;48.928;8.474;2023-03-16T09:18:32;2.92;;;1.77;;
76065;SDS011;64763;48.928;8.474;2023-03-16T09:20:59;3.33;;;1.52;;
76065;SDS011;64763;48.928;8.474;2023-03-16T09:23:26;2.40;;;1.58;;
76065;SDS011;64763;48.928;8.474;2023-03-16T09:25:57;2.47;;;1.50;;
76065;SDS011;64763;48.928;8.474;2023-03-16T09:28:24;2.17;;;1.33;;
76065;SDS011;64763;48.928;8.474;2023-03-16T09:30:54;2.60;;;1.40;;
76065;SDS011;64763;48.928;8.474;2023-03-16T09:33:21;5.10;;;1.35;;
76065;SDS011;64763;48.928;8.474;2023-03-16T09:35:47;2.45;;;1.70;;
76065;SDS011;64763;48.928;8.474;2023-03-16T09:38:13;2.55;;;1.65;;
76065;SDS011;64763;48.928;8.474;2023-03-16T09:40:38;2.45;;;1.30;;
76065;SDS011;64763;48.928;8.474;2023-03-16T09:43:16;4.15;;;1.50;;
76065;SDS011;64763;48.928;8.474;2023-03-16T09:48:36;2.17;;;1.40;;
76065;SDS011;64763;48.928;8.474;2023-03-16T09:51:04;1.45;;;1.08;;
76065;SDS011;64763;48.928;8.474;2023-03-16T09:53:31;2.08;;;1.20;;
76065;SDS011;64763;48.928;8.474;2023-03-16T09:56:02;2.15;;;1.17;;
76065;SDS011;64763;48.928;8.474;2023-03-16T09:58:29;2.15;;;1.30;;
76065;SDS011;64763;48.928;8.474;2023-03-16T10:01:02;2.00;;;1.38;;
76065;SDS011;64763;48.928;8.474;2023-03-16T10:03:56;3.38;;;1.38;;
76065;SDS011;64763;48.928;8.474;2023-03-16T10:06:47;2.95;;;1.40;;
76065;SDS011;64763;48.928;8.474;2023-03-16T10:09:42;2.58;;;1.20;;
76065;SDS011;64763;48.928;8.474;2023-03-16T10:12:22;2.85;;;1.00;;
76065;SDS011;64763;48.928;8.474;2023-03-16T10:14:55;3.67;;;1.20;;
76065;SDS011;64763;48.928;8.474;2023-03-16T10:19:55;2.20;;;1.13;;
76065;SDS011;64763;48.928;8.474;2023-03-16T10:27:38;1.60;;;1.00;;
76065;SDS011;64763;48.928;8.474;2023-03-16T10:30:27;2.30;;;1.20;;
76065;SDS011;64763;48.928;8.474;2023-03-16T10:33:03;2.28;;;1.10;;
76065;SDS011;64763;48.928;8.474;2023-03-16T10:35:48;1.30;;;0.90;;
76065;SDS011;64763;48.928;8.474;2023-03-16T10:41:23;2.88;;;1.27;;
76065;SDS011;64763;48.928;8.474;2023-03-16T10:46:56;1.75;;;1.10;;
76065;SDS011;64763;48.928;8.474;2023-03-16T10:52:03;2.72;;;1.30;;
76065;SDS011;64763;48.928;8.474;2023-03-16T10:54:34;4.10;;;1.15;;
76065;SDS011;64763;48.928;8.474;2023-03-16T10:57:12;2.05;;;1.10;;
76065;SDS011;64763;48.928;8.474;2023-03-16T10:59:47;1.35;;;1.00;;
76065;SDS011;64763;48.928;8.474;2023-03-16T11:02:14;2.33;;;0.93;;
76065;SDS011;64763;48.928;8.474;2023-03-16T11:04:47;1.83;;;1.00;;
76065;SDS011;64763;48.928;8.474;2023-03-16T11:07:20;3.83;;;1.17;;
76065;SDS011;64763;48.928;8.474;2023-03-16T11:09:48;2.63;;;1.25;;
76065;SDS011;64763;48.928;8.474;2023-03-16T11:12:21;2.13;;;1.10;;
76065;SDS011;64763;48.928;8.474;2023-03-16T11:14:51;1.33;;;0.93;;
76065;SDS011;64763;48.928;8.474;2023-03-16T11:17:20;3.35;;;1.08;;
76065;SDS011;64763;48.928;8.474;2023-03-16T11:19:55;2.13;;;1.00;;
76065;SDS011;64763;48.928;8.474;2023-03-16T11:22:24;3.90;;;0.93;;
76065;SDS011;64763;48.928;8.474;2023-03-16T11:32:34;1.75;;;1.13;;
76065;SDS011;64763;48.928;8.474;2023-03-16T11:35:02;2.10;;;1.00;;
76065;SDS011;64763;48.928;8.474;2023-03-16T11:38:08;2.35;;;1.10;;
76065;SDS011;64763;48.928;8.474;2023-03-16T11:48:31;2.60;;;1.30;;
76065;SDS011;64763;48.928;8.474;2023-03-16T11:51:29;1.67;;;1.20;;
76065;SDS011;64763;48.928;8.474;2023-03-16T11:57:00;3.30;;;1.45;;
76065;SDS011;64763;48.928;8.474;2023-03-16T12:13:01;3.10;;;1.17;;
76065;SDS011;64763;48.928;8.474;2023-03-16T12:15:55;2.25;;;1.40;;
76065;SDS011;64763;48.928;8.474;2023-03-16T12:18:48;6.60;;;1.45;;
76065;SDS011;64763;48.928;8.474;2023-03-16T12:21:21;3.30;;;1.40;;
76065;SDS011;64763;48.928;8.474;2023-03-16T12:23:51;2.33;;;1.23;;
76065;SDS011;64763;48.928;8.474;2023-03-16T12:26:20;1.98;;;1.13;;
76065;SDS011;64763;48.928;8.474;2023-03-16T12:28:46;3.05;;;1.45;;
76065;SDS011;64763;48.928;8.474;2023-03-16T12:31:18;3.45;;;1.50;;
76065;SDS011;64763;48.928;8.474;2023-03-16T12:36:35;2.47;;;1.02;;
76065;SDS011;64763;48.928;8.474;2023-03-16T12:39:06;3.63;;;1.40;;
76065;SDS011;64763;48.928;8.474;2023-03-16T12:41:44;2.17;;;1.30;;
76065;SDS011;64763;48.928;8.474;2023-03-16T12:44:38;3.85;;;1.20;;
76065;SDS011;64763;48.928;8.474;2023-03-16T12:49:43;2.70;;;1.20;;
76065;SDS011;64763;48.928;8.474;2023-03-16T12:52:10;1.70;;;1.20;;
76065;SDS011;64763;48.928;8.474;2023-03-16T12:54:47;3.03;;;1.23;;
76065;SDS011;64763;48.928;8.474;2023-03-16T12:57:14;2.03;;;1.17;;
76065;SDS011;64763;48.928;8.474;2023-03-16T12:59:42;1.55;;;1.02;;
76065;SDS011;64763;48.928;8.474;2023-03-16T13:02:19;2.67;;;1.35;;
76065;SDS011;64763;48.928;8.474;2023-03-16T13:04:53;3.22;;;1.10;;
76065;SDS011;64763;48.928;8.474;2023-03-16T13:07:23;1.85;;;1.10;;
76065;SDS011;64763;48.928;8.474;2023-03-16T13:09:51;2.35;;;1.27;;
76065;SDS011;64763;48.928;8.474;2023-03-16T13:12:37;4.57;;;1.13;;
76065;SDS011;64763;48.928;8.474;2023-03-16T13:17:43;5.32;;;1.30;;
76065;SDS011;64763;48.928;8.474;2023-03-16T13:27:39;3.42;;;1.33;;
76065;SDS011;64763;48.928;8.474;2023-03-16T13:32:42;3.40;;;1.30;;
76065;SDS011;64763;48.928;8.474;2023-03-16T13:35:10;3.10;;;1.52;;
76065;SDS011;64763;48.928;8.474;2023-03-16T13:37:38;3.13;;;1.20;;
76065;SDS011;64763;48.928;8.474;2023-03-16T13:40:15;2.08;;;1.15;;
76065;SDS011;64763;48.928;8.474;2023-03-16T13:42:41;2.20;;;1.27;;
76065;SDS011;64763;48.928;8.474;2023-03-16T13:45:12;2.63;;;1.35;;
76065;SDS011;64763;48.928;8.474;2023-03-16T13:47:40;2.20;;;1.15;;
76065;SDS011;64763;48.928;8.474;2023-03-16T13:50:09;4.57;;;1.30;;
76065;SDS011;64763;48.928;8.474;2023-03-16T13:52:36;3.67;;;1.30;;
76065;SDS011;64763;48.928;8.474;2023-03-16T13:55:06;3.25;;;1.30;;
76065;SDS011;64763;48.928;8.474;2023-03-16T13:57:46;3.40;;;1.30;;
76065;SDS011;64763;48.928;8.474;2023-03-16T14:00:14;2.88;;;1.30;;
76065;SDS011;64763;48.928;8.474;2023-03-16T14:02:44;2.40;;;1.35;;
76065;SDS011;64763;48.928;8.474;2023-03-16T14:05:15;3.33;;;1.52;;
76065;SDS011;64763;48.928;8.474;2023-03-16T14:07:44;5.20;;;1.77;;
76065;SDS011;64763;48.928;8.474;2023-03-16T14:10:11;3.53;;;1.42;;
76065;SDS011;64763;48.928;8.474;2023-03-16T14:12:48;4.50;;;1.50;;
76065;SDS011;64763;48.928;8.474;2023-03-16T14:15:14;3.22;;;1.40;;
76065;SDS011;64763;48.928;8.474;2023-03-16T14:17:41;2.28;;;1.60;;
76065;SDS011;64763;48.928;8.474;2023-03-16T14:20:08;1.90;;;1.30;;
76065;SDS011;64763;48.928;8.474;2023-03-16T14:22:41;4.13;;;1.60;;
76065;SDS011;64763;48.928;8.474;2023-03-16T14:25:09;4.07;;;1.40;;
76065;SDS011;64763;48.928;8.474;2023-03-16T14:27:43;4.15;;;1.60;;
76065;SDS011;64763;48.928;8.474;2023-03-16T14:30:14;2.88;;;1.45;;
76065;SDS011;64763;48.928;8.474;2023-03-16T14:32:53;3.13;;;1.50;;
76065;SDS011;64763;48.928;8.474;2023-03-16T14:35:20;2.85;;;1.52;;
76065;SDS011;64763;48.928;8.474;2023-03-16T14:37:46;3.67;;;1.70;;
76065;SDS011;64763;48.928;8.474;2023-03-16T14:42:55;3.08;;;1.50;;
76065;SDS011;64763;48.928;8.474;2023-03-16T14:45:26;2.83;;;1.50;;
76065;SDS011;64763;48.928;8.474;2023-03-16T14:47:59;3.92;;;1.42;;
76065;SDS011;64763;48.928;8.474;2023-03-16T14:50:27;10.40;;;1.70;;
76065;SDS011;64763;48.928;8.474;2023-03-16T14:52:53;3.33;;;1.50;;
76065;SDS011;64763;48.928;8.474;2023-03-16T14:55:19;4.00;;;1.73;;
76065;SDS011;64763;48.928;8.474;2023-03-16T14:57:46;2.28;;;1.38;;
76065;SDS011;64763;48.928;8.474;2023-03-16T15:00:13;3.88;;;1.88;;
76065;SDS011;64763;48.928;8.474;2023-03-16T15:02:41;4.00;;;1.52;;
76065;SDS011;64763;48.928;8.474;2023-03-16T15:05:08;3.33;;;1.50;;
76065;SDS011;64763;48.928;8.474;2023-03-16T15:07:35;1.90;;;1.30;;
76065;SDS011;64763;48.928;8.474;2023-03-16T15:10:11;2.63;;;1.30;;
76065;SDS011;64763;48.928;8.474;2023-03-16T15:12:48;4.70;;;1.48;;
76065;SDS011;64763;48.928;8.474;2023-03-16T15:15:28;3.53;;;1.48;;
76065;SDS011;64763;48.928;8.474;2023-03-16T15:17:54;4.28;;;1.40;;
76065;SDS011;64763;48.928;8.474;2023-03-16T15:20:27;3.25;;;1.42;;
76065;SDS011;64763;48.928;8.474;2023-03-16T15:22:55;2.30;;;1.38;;
76065;SDS011;64763;48.928;8.474;2023-03-16T15:27:48;2.00;;;1.30;;
76065;SDS011;64763;48.928;8.474;2023-03-16T15:30:14;2.30;;;1.33;;
76065;SDS011;64763;48.928;8.474;2023-03-16T15:32:41;2.55;;;1.20;;
76065;SDS011;64763;48.928;8.474;2023-03-16T15:35:07;1.65;;;1.30;;
76065;SDS011;64763;48.928;8.474;2023-03-16T15:37:32;3.03;;;1.58;;
76065;SDS011;64763;48.928;8.474;2023-03-16T15:39:58;2.03;;;1.52;;
76065;SDS011;64763;48.928;8.474;2023-03-16T15:42:23;2.95;;;1.42;;
76065;SDS011;64763;48.928;8.474;2023-03-16T15:44:50;2.22;;;1.30;;
76065;SDS011;64763;48.928;8.474;2023-03-16T15:47:15;2.28;;;1.23;;
76065;SDS011;64763;48.928;8.474;2023-03-16T15:49:40;2.58;;;1.60;;
76065;SDS011;64763;48.928;8.474;2023-03-16T15:52:09;2.42;;;1.40;;
76065;SDS011;64763;48.928;8.474;2023-03-16T15:54:53;3.90;;;1.60;;
76065;SDS011;64763;48.928;8.474;2023-03-16T15:57:21;2.22;;;1.40;;
76065;SDS011;64763;48.928;8.474;2023-03-16T15:59:46;3.28;;;1.50;;
76065;SDS011;64763;48.928;8.474;2023-03-16T16:02:22;3.60;;;1.80;;
76065;SDS011;64763;48.928;8.474;2023-03-16T16:04:55;2.85;;;1.60;;
76065;SDS011;64763;48.928;8.474;2023-03-16T16:07:21;4.18;;;1.67;;
76065;SDS011;64763;48.928;8.474;2023-03-16T16:09:47;2.85;;;1.70;;
76065;SDS011;64763;48.928;8.474;2023-03-16T16:12:13;4.20;;;2.30;;
76065;SDS011;64763;48.928;8.474;2023-03-16T16:14:40;3.20;;;1.70;;
76065;SDS011;64763;48.928;8.474;2023-03-16T16:17:09;2.75;;;1.80;;
76065;SDS011;64763;48.928;8.474;2023-03-16T16:19:35;2.50;;;1.65;;
76065;SDS011;64763;48.928;8.474;2023-03-16T16:22:01;4.20;;;1.60;;
76065;SDS011;64763;48.928;8.474;2023-03-16T16:24:27;2.60;;;1.60;;
76065;SDS011;64763;48.928;8.474;2023-03-16T16:26:52;3.35;;;1.77;;
76065;SDS011;64763;48.928;8.474;2023-03-16T16:29:19;3.35;;;1.80;;
76065;SDS011;64763;48.928;8.474;2023-03-16T16:31:48;3.08;;;1.70;;
76065;SDS011;64763;48.928;8.474;2023-03-16T16:34:16;3.90;;;1.60;;
76065;SDS011;64763;48.928;8.474;2023-03-16T16:36:45;4.45;;;1.70;;
76065;SDS011;64763;48.928;8.474;2023-03-16T16:39:11;4.00;;;1.60;;
76065;SDS011;64763;48.928;8.474;2023-03-16T16:41:37;3.58;;;1.50;;
76065;SDS011;64763;48.928;8.474;2023-03-16T16:44:03;3.97;;;2.10;;
76065;SDS011;64763;48.928;8.474;2023-03-16T16:46:35;6.88;;;2.58;;
76065;SDS011;64763;48.928;8.474;2023-03-16T16:49:05;3.65;;;2.10;;
76065;SDS011;64763;48.928;8.474;2023-03-16T16:51:34;3.75;;;2.15;;
76065;SDS011;64763;48.928;8.474;2023-03-16T16:53:59;3.35;;;2.20;;
76065;SDS011;64763;48.928;8.474;2023-03-16T16:58:55;4.25;;;2.22;;
76065;SDS011;64763;48.928;8.474;2023-03-16T17:01:26;4.88;;;2.40;;
76065;SDS011;64763;48.928;8.474;2023-03-16T17:03:52;4.95;;;1.95;;
76065;SDS011;64763;48.928;8.474;2023-03-16T17:06:18;3.85;;;1.88;;
76065;SDS011;64763;48.928;8.474;2023-03-16T17:08:44;3.30;;;1.90;;
76065;SDS011;64763;48.928;8.474;2023-03-16T17:11:11;2.30;;;1.60;;
76065;SDS011;64763;48.928;8.474;2023-03-16T17:13:43;4.28;;;2.10;;
76065;SDS011;64763;48.928;8.474;2023-03-16T17:16:12;3.65;;;2.00;;
76065;SDS011;64763;48.928;8.474;2023-03-16T17:18:39;4.10;;;2.13;;
76065;SDS011;64763;48.928;8.474;2023-03-16T17:21:05;5.10;;;2.55;;
76065;SDS011;64763;48.928;8.474;2023-03-16T17:23:34;5.15;;;2.72;;
76065;SDS011;64763;48.928;8.474;2023-03-16T17:26:02;5.90;;;2.60;;
76065;SDS011;64763;48.928;8.474;2023-03-16T17:28:47;4.18;;;2.30;;
76065;SDS011;64763;48.928;8.474;2023-03-16T17:31:35;3.95;;;2.30;;
76065;SDS011;64763;48.928;8.474;2023-03-16T17:34:08;2.97;;;1.90;;
76065;SDS011;64763;48.928;8.474;2023-03-16T17:36:39;3.65;;;2.00;;
76065;SDS011;64763;48.928;8.474;2023-03-16T17:39:08;4.75;;;2.10;;